Weather at Mount Sterling Montgomery County Airport

Public forecast

Using degrees Fahrenheit for public forecast. Weather courtesy of forecast.io.

Current aviation weather report (METAR) for Mount Sterling Montgomery County Airport

Retrieved 2021/10/18 17:15 UTC (0 seconds ago):

KIOB 181715Z AUTO 27006KT 10SM CLR 18/05 A3022 RMK AO2

Closest aviation forecast (TAF) to Mount Sterling Montgomery County Airport

Closest forecast is Blue Grass Airport, 29.6 nm (54.9 km) W. Retrieved 2021/10/18 12:22 UTC (5 hours ago):

TAF KLEX 181120Z 1812/1912 26005KT P6SM SKC